sensor_id;sensor_type;location;lat;lon;timestamp;pressure;altitude;pressure_sealevel;temperature;humidity
60994;BME280;47611;54.932;73.338;2022-07-23T17:44:26;99210.16;;;18.07;50.98
60994;BME280;47611;54.932;73.338;2022-07-23T17:46:52;99211.00;;;18.01;51.26
60994;BME280;47611;54.932;73.338;2022-07-23T17:49:18;99205.03;;;18.02;51.78
60994;BME280;47611;54.932;73.338;2022-07-23T17:51:49;99208.59;;;18.03;51.08
60994;BME280;47611;54.932;73.338;2022-07-23T17:54:15;99208.97;;;18.05;51.39
60994;BME280;47611;54.932;73.338;2022-07-23T17:56:41;99217.66;;;18.07;51.42
60994;BME280;47611;54.932;73.338;2022-07-23T17:59:08;99207.03;;;18.02;51.64
60994;BME280;47611;54.932;73.338;2022-07-23T18:01:35;99208.19;;;18.04;53.26
60994;BME280;47611;54.932;73.338;2022-07-23T18:04:03;99209.78;;;18.05;51.48
60994;BME280;47611;54.932;73.338;2022-07-23T18:06:29;99205.78;;;18.06;52.36
60994;BME280;47611;54.932;73.338;2022-07-23T18:08:55;99210.38;;;18.20;50.93
60994;BME280;47611;54.932;73.338;2022-07-23T18:11:27;99206.91;;;18.12;51.64
60994;BME280;47611;54.932;73.338;2022-07-23T18:13:53;99208.69;;;18.30;53.86
60994;BME280;47611;54.932;73.338;2022-07-23T18:16:20;99204.53;;;18.45;53.46
60994;BME280;47611;54.932;73.338;2022-07-23T18:18:46;99197.72;;;18.53;51.99
60994;BME280;47611;54.932;73.338;2022-07-23T18:21:22;99197.91;;;18.66;52.98
60994;BME280;47611;54.932;73.338;2022-07-23T18:23:48;99206.22;;;18.70;53.71
60994;BME280;47611;54.932;73.338;2022-07-23T18:26:15;99203.13;;;18.64;52.65
60994;BME280;47611;54.932;73.338;2022-07-23T18:28:47;99206.56;;;18.72;52.54
60994;BME280;47611;54.932;73.338;2022-07-23T18:31:13;99206.56;;;18.75;52.46
60994;BME280;47611;54.932;73.338;2022-07-23T18:33:40;99198.66;;;18.70;50.15
60994;BME280;47611;54.932;73.338;2022-07-23T18:36:06;99198.97;;;18.45;50.70
60994;BME280;47611;54.932;73.338;2022-07-23T18:38:33;99200.09;;;18.17;50.68
60994;BME280;47611;54.932;73.338;2022-07-23T18:40:59;99209.03;;;17.98;50.85
60994;BME280;47611;54.932;73.338;2022-07-23T18:43:25;99205.25;;;17.81;51.65
60994;BME280;47611;54.932;73.338;2022-07-23T18:45:51;99203.78;;;17.69;51.90
60994;BME280;47611;54.932;73.338;2022-07-23T18:48:19;99194.34;;;17.59;52.12
60994;BME280;47611;54.932;73.338;2022-07-23T18:50:45;99188.06;;;17.51;51.81
60994;BME280;47611;54.932;73.338;2022-07-23T18:53:12;99195.25;;;17.45;52.46
60994;BME280;47611;54.932;73.338;2022-07-23T18:55:42;99197.72;;;17.33;52.35
60994;BME280;47611;54.932;73.338;2022-07-23T18:58:09;99197.03;;;17.25;52.66
60994;BME280;47611;54.932;73.338;2022-07-23T19:00:42;99194.31;;;17.14;53.17
60994;BME280;47611;54.932;73.338;2022-07-23T19:03:08;99191.59;;;17.07;53.44
60994;BME280;47611;54.932;73.338;2022-07-23T19:05:34;99187.28;;;16.99;53.66
60994;BME280;47611;54.932;73.338;2022-07-23T19:08:05;99186.94;;;16.97;53.75
60994;BME280;47611;54.932;73.338;2022-07-23T19:10:38;99193.25;;;16.94;54.48
60994;BME280;47611;54.932;73.338;2022-07-23T19:13:06;99190.13;;;16.92;54.49
60994;BME280;47611;54.932;73.338;2022-07-23T19:15:34;99192.13;;;16.88;54.83
60994;BME280;47611;54.932;73.338;2022-07-23T19:18:10;99182.66;;;16.81;55.00
60994;BME280;47611;54.932;73.338;2022-07-23T19:20:41;99170.44;;;16.75;55.13
60994;BME280;47611;54.932;73.338;2022-07-23T19:23:07;99185.06;;;16.72;55.42
60994;BME280;47611;54.932;73.338;2022-07-23T19:25:34;99183.88;;;16.70;55.88
60994;BME280;47611;54.932;73.338;2022-07-23T19:28:00;99190.22;;;16.70;56.33
60994;BME280;47611;54.932;73.338;2022-07-23T19:30:32;99178.31;;;16.73;56.46
60994;BME280;47611;54.932;73.338;2022-07-23T19:32:58;99184.69;;;16.70;56.40
60994;BME280;47611;54.932;73.338;2022-07-23T19:35:25;99190.22;;;16.70;56.80
60994;BME280;47611;54.932;73.338;2022-07-23T19:38:01;99189.81;;;16.68;57.47
60994;BME280;47611;54.932;73.338;2022-07-23T19:40:27;99182.75;;;16.63;57.68
60994;BME280;47611;54.932;73.338;2022-07-23T19:42:53;99187.91;;;16.58;57.93
60994;BME280;47611;54.932;73.338;2022-07-23T19:45:20;99191.09;;;16.56;58.00
60994;BME280;47611;54.932;73.338;2022-07-23T19:47:46;99191.84;;;16.64;57.82
60994;BME280;47611;54.932;73.338;2022-07-23T19:50:13;99184.69;;;16.74;57.65
60994;BME280;47611;54.932;73.338;2022-07-23T19:52:39;99188.66;;;16.69;57.51
60994;BME280;47611;54.932;73.338;2022-07-23T19:55:08;99187.84;;;16.72;57.51
60994;BME280;47611;54.932;73.338;2022-07-23T19:57:45;99183.56;;;16.57;57.33
60994;BME280;47611;54.932;73.338;2022-07-23T20:00:13;99183.97;;;16.55;57.70
60994;BME280;47611;54.932;73.338;2022-07-23T20:02:39;99189.56;;;16.45;57.99
60994;BME280;47611;54.932;73.338;2022-07-23T20:05:07;99195.50;;;16.39;57.79
60994;BME280;47611;54.932;73.338;2022-07-23T20:07:35;99184.88;;;16.34;58.24
60994;BME280;47611;54.932;73.338;2022-07-23T20:10:02;99183.31;;;16.30;58.34
60994;BME280;47611;54.932;73.338;2022-07-23T20:12:29;99181.75;;;16.22;58.33
60994;BME280;47611;54.932;73.338;2022-07-23T20:14:55;99180.59;;;16.15;58.58
60994;BME280;47611;54.932;73.338;2022-07-23T20:17:24;99176.22;;;16.14;58.91
60994;BME280;47611;54.932;73.338;2022-07-23T20:19:50;99172.66;;;16.14;58.79
60994;BME280;47611;54.932;73.338;2022-07-23T20:22:16;99167.56;;;16.12;58.85
60994;BME280;47611;54.932;73.338;2022-07-23T20:24:43;99165.97;;;16.08;58.93
60994;BME280;47611;54.932;73.338;2022-07-23T20:27:18;99156.50;;;16.02;58.98
60994;BME280;47611;54.932;73.338;2022-07-23T20:29:45;99158.88;;;16.03;59.18
60994;BME280;47611;54.932;73.338;2022-07-23T20:32:11;99166.00;;;16.01;59.58
60994;BME280;47611;54.932;73.338;2022-07-23T20:34:37;99174.31;;;16.01;59.42
60994;BME280;47611;54.932;73.338;2022-07-23T20:37:04;99185.00;;;15.99;59.51
60994;BME280;47611;54.932;73.338;2022-07-23T20:39:30;99186.56;;;16.03;59.58
60994;BME280;47611;54.932;73.338;2022-07-23T20:41:57;99175.88;;;16.09;59.58
60994;BME280;47611;54.932;73.338;2022-07-23T20:44:25;99179.00;;;16.11;59.79
60994;BME280;47611;54.932;73.338;2022-07-23T20:46:51;99176.22;;;16.14;60.02
60994;BME280;47611;54.932;73.338;2022-07-23T20:49:21;99185.69;;;16.24;59.59
60994;BME280;47611;54.932;73.338;2022-07-23T20:51:48;99189.66;;;16.23;59.28
60994;BME280;47611;54.932;73.338;2022-07-23T20:54:18;99177.81;;;16.19;59.62
60994;BME280;47611;54.932;73.338;2022-07-23T20:56:44;99182.53;;;16.22;59.33
60994;BME280;47611;54.932;73.338;2022-07-23T20:59:19;99172.63;;;16.25;59.46
60994;BME280;47611;54.932;73.338;2022-07-23T21:01:45;99167.50;;;16.20;58.96
60994;BME280;47611;54.932;73.338;2022-07-23T21:04:12;99158.84;;;16.10;59.03
60994;BME280;47611;54.932;73.338;2022-07-23T21:06:38;99159.66;;;16.04;59.27
60994;BME280;47611;54.932;73.338;2022-07-23T21:09:04;99164.41;;;16.07;59.37
60994;BME280;47611;54.932;73.338;2022-07-23T21:11:34;99169.97;;;16.03;59.65
60994;BME280;47611;54.932;73.338;2022-07-23T21:14:00;99180.22;;;16.03;59.64
60994;BME280;47611;54.932;73.338;2022-07-23T21:16:27;99180.22;;;16.03;59.90
60994;BME280;47611;54.932;73.338;2022-07-23T21:18:53;99190.94;;;16.01;59.92
60994;BME280;47611;54.932;73.338;2022-07-23T21:21:19;99186.97;;;16.02;59.44
60994;BME280;47611;54.932;73.338;2022-07-23T21:23:47;99194.06;;;16.03;59.71
60994;BME280;47611;54.932;73.338;2022-07-23T21:26:24;99201.19;;;16.00;59.84
60994;BME280;47611;54.932;73.338;2022-07-23T21:28:50;99209.50;;;16.00;59.82
60994;BME280;47611;54.932;73.338;2022-07-23T21:31:17;99206.34;;;16.09;59.68
60994;BME280;47611;54.932;73.338;2022-07-23T21:33:43;99201.56;;;16.13;59.42
60994;BME280;47611;54.932;73.338;2022-07-23T21:36:10;99193.66;;;16.15;59.36
60994;BME280;47611;54.932;73.338;2022-07-23T21:38:37;99201.16;;;16.11;59.30
60994;BME280;47611;54.932;73.338;2022-07-23T21:41:03;99200.81;;;16.09;59.46
60994;BME280;47611;54.932;73.338;2022-07-23T21:43:31;99194.47;;;16.05;59.61
60994;BME280;47611;54.932;73.338;2022-07-23T21:46:02;99192.94;;;15.89;59.94
60994;BME280;47611;54.932;73.338;2022-07-23T21:48:29;99184.63;;;15.86;59.65
60994;BME280;47611;54.932;73.338;2022-07-23T21:50:55;99172.38;;;15.87;59.74
60994;BME280;47611;54.932;73.338;2022-07-23T21:53:30;99177.13;;;15.86;59.70
60994;BME280;47611;54.932;73.338;2022-07-23T21:55:58;99177.91;;;15.83;59.89
60994;BME280;47611;54.932;73.338;2022-07-23T21:58:34;99182.28;;;15.84;60.07
60994;BME280;47611;54.932;73.338;2022-07-23T22:01:00;99187.41;;;15.82;60.07
60994;BME280;47611;54.932;73.338;2022-07-23T22:03:27;99185.06;;;15.81;59.93
60994;BME280;47611;54.932;73.338;2022-07-23T22:05:53;99181.88;;;15.82;60.35
60994;BME280;47611;54.932;73.338;2022-07-23T22:08:29;99195.31;;;15.87;60.37
60994;BME280;47611;54.932;73.338;2022-07-23T22:10:56;99194.53;;;15.87;60.34
60994;BME280;47611;54.932;73.338;2022-07-23T22:13:22;99183.44;;;15.83;60.70
60994;BME280;47611;54.932;73.338;2022-07-23T22:15:48;99182.66;;;15.86;60.16
60994;BME280;47611;54.932;73.338;2022-07-23T22:18:25;99187.41;;;15.89;60.61
60994;BME280;47611;54.932;73.338;2022-07-23T22:20:51;99185.03;;;15.88;60.43
60994;BME280;47611;54.932;73.338;2022-07-23T22:23:19;99183.84;;;15.92;60.14
60994;BME280;47611;54.932;73.338;2022-07-23T22:25:46;99188.56;;;15.88;60.91
60994;BME280;47611;54.932;73.338;2022-07-23T22:28:12;99190.56;;;15.84;60.56
60994;BME280;47611;54.932;73.338;2022-07-23T22:30:38;99194.50;;;15.90;60.55
60994;BME280;47611;54.932;73.338;2022-07-23T22:33:04;99189.78;;;15.84;60.59
60994;BME280;47611;54.932;73.338;2022-07-23T22:35:34;99196.13;;;15.81;61.51
60994;BME280;47611;54.932;73.338;2022-07-23T22:38:00;99196.50;;;15.79;61.46
60994;BME280;47611;54.932;73.338;2022-07-23T22:40:26;99197.66;;;15.96;61.39
60994;BME280;47611;54.932;73.338;2022-07-23T22:42:53;99199.59;;;16.03;61.12
60994;BME280;47611;54.932;73.338;2022-07-23T22:45:19;99200.00;;;16.12;60.91
60994;BME280;47611;54.932;73.338;2022-07-23T22:47:45;99210.28;;;16.15;60.80
60994;BME280;47611;54.932;73.338;2022-07-23T22:50:12;99213.81;;;16.19;60.85
60994;BME280;47611;54.932;73.338;2022-07-23T22:52:38;99220.13;;;16.20;60.60
60994;BME280;47611;54.932;73.338;2022-07-23T22:55:09;99222.16;;;16.12;61.96
60994;BME280;47611;54.932;73.338;2022-07-23T22:57:36;99230.09;;;15.95;63.23
60994;BME280;47611;54.932;73.338;2022-07-23T23:00:05;99234.06;;;15.87;63.42
60994;BME280;47611;54.932;73.338;2022-07-23T23:02:31;99235.66;;;15.70;64.35
60994;BME280;47611;54.932;73.338;2022-07-23T23:04:57;99245.94;;;15.70;64.95
60994;BME280;47611;54.932;73.338;2022-07-23T23:07:26;99243.56;;;15.65;64.83
60994;BME280;47611;54.932;73.338;2022-07-23T23:09:53;99243.56;;;15.47;66.03
60994;BME280;47611;54.932;73.338;2022-07-23T23:12:29;99248.28;;;15.46;65.60
60994;BME280;47611;54.932;73.338;2022-07-23T23:14:55;99260.94;;;15.33;66.13
60994;BME280;47611;54.932;73.338;2022-07-23T23:17:22;99266.47;;;15.26;66.91
60994;BME280;47611;54.932;73.338;2022-07-23T23:19:49;99264.09;;;15.10;67.49
60994;BME280;47611;54.932;73.338;2022-07-23T23:22:15;99277.50;;;15.08;67.84
60994;BME280;47611;54.932;73.338;2022-07-23T23:24:44;99282.25;;;15.08;67.99
60994;BME280;47611;54.932;73.338;2022-07-23T23:27:10;99280.25;;;15.04;68.14
60994;BME280;47611;54.932;73.338;2022-07-23T23:29:36;99290.13;;;15.05;68.79
60994;BME280;47611;54.932;73.338;2022-07-23T23:32:02;99292.09;;;15.05;68.48
60994;BME280;47611;54.932;73.338;2022-07-23T23:34:29;99294.88;;;15.05;68.94
60994;BME280;47611;54.932;73.338;2022-07-23T23:36:56;99301.22;;;15.13;69.12
60994;BME280;47611;54.932;73.338;2022-07-23T23:39:25;99308.31;;;15.14;69.25
60994;BME280;47611;54.932;73.338;2022-07-23T23:41:56;99313.47;;;15.26;69.32
60994;BME280;47611;54.932;73.338;2022-07-23T23:44:22;99320.59;;;15.27;69.05
60994;BME280;47611;54.932;73.338;2022-07-23T23:46:52;99315.41;;;15.15;69.35
60994;BME280;47611;54.932;73.338;2022-07-23T23:49:21;99292.50;;;15.18;69.26
60994;BME280;47611;54.932;73.338;2022-07-23T23:51:58;99298.41;;;15.09;69.36
60994;BME280;47611;54.932;73.338;2022-07-23T23:54:24;99305.53;;;14.99;69.83
60994;BME280;47611;54.932;73.338;2022-07-23T23:56:50;99297.59;;;14.94;69.75
60994;BME280;47611;54.932;73.338;2022-07-23T23:59:16;99290.88;;;14.88;69.93
